sensor_id;sensor_type;location;lat;lon;timestamp;pressure;altitude;pressure_sealevel;temperature;humidity
12182;BME280;6154;51.550;12.138;2023-04-27T00:02:09;100813.16;;;8.05;49.78
12182;BME280;6154;51.550;12.138;2023-04-27T00:04:38;100812.22;;;8.06;49.77
12182;BME280;6154;51.550;12.138;2023-04-27T00:07:06;100813.94;;;8.07;49.87
12182;BME280;6154;51.550;12.138;2023-04-27T00:09:34;100808.69;;;8.07;49.91
12182;BME280;6154;51.550;12.138;2023-04-27T00:12:03;100802.63;;;8.05;50.00
12182;BME280;6154;51.550;12.138;2023-04-27T00:14:32;100819.34;;;8.04;50.08
12182;BME280;6154;51.550;12.138;2023-04-27T00:17:00;100812.38;;;8.03;50.07
12182;BME280;6154;51.550;12.138;2023-04-27T00:19:29;100807.94;;;8.04;49.46
12182;BME280;6154;51.550;12.138;2023-04-27T00:21:57;100805.31;;;8.04;49.38
12182;BME280;6154;51.550;12.138;2023-04-27T00:24:26;100805.25;;;8.05;49.00
12182;BME280;6154;51.550;12.138;2023-04-27T00:26:54;100798.25;;;8.04;49.40
12182;BME280;6154;51.550;12.138;2023-04-27T00:29:22;100795.50;;;8.07;48.80
12182;BME280;6154;51.550;12.138;2023-04-27T00:31:50;100800.59;;;8.12;48.48
12182;BME280;6154;51.550;12.138;2023-04-27T00:34:21;100801.47;;;8.13;48.64
12182;BME280;6154;51.550;12.138;2023-04-27T00:36:50;100792.72;;;8.11;48.84
12182;BME280;6154;51.550;12.138;2023-04-27T00:39:19;100802.47;;;8.08;48.90
12182;BME280;6154;51.550;12.138;2023-04-27T00:41:47;100797.28;;;8.07;48.90
12182;BME280;6154;51.550;12.138;2023-04-27T00:44:21;100789.44;;;8.05;48.83
12182;BME280;6154;51.550;12.138;2023-04-27T00:46:50;100800.09;;;8.02;49.68
12182;BME280;6154;51.550;12.138;2023-04-27T00:49:19;100803.69;;;8.00;49.06
12182;BME280;6154;51.550;12.138;2023-04-27T00:51:48;100802.84;;;7.99;48.77
12182;BME280;6154;51.550;12.138;2023-04-27T00:54:19;100803.75;;;7.98;48.55
12182;BME280;6154;51.550;12.138;2023-04-27T00:56:47;100805.59;;;7.96;49.00
12182;BME280;6154;51.550;12.138;2023-04-27T00:59:16;100806.59;;;7.94;49.01
12182;BME280;6154;51.550;12.138;2023-04-27T01:01:45;100804.09;;;7.89;49.30
12182;BME280;6154;51.550;12.138;2023-04-27T01:04:13;100806.16;;;7.81;49.88
12182;BME280;6154;51.550;12.138;2023-04-27T01:06:43;100813.53;;;7.73;50.39
12182;BME280;6154;51.550;12.138;2023-04-27T01:09:11;100812.22;;;7.60;50.52
12182;BME280;6154;51.550;12.138;2023-04-27T01:11:41;100814.06;;;7.58;49.18
12182;BME280;6154;51.550;12.138;2023-04-27T01:14:09;100811.50;;;7.56;49.97
12182;BME280;6154;51.550;12.138;2023-04-27T01:16:38;100816.87;;;7.53;50.79
12182;BME280;6154;51.550;12.138;2023-04-27T01:19:08;100819.78;;;7.45;50.83
12182;BME280;6154;51.550;12.138;2023-04-27T01:21:36;100818.16;;;7.41;51.19
12182;BME280;6154;51.550;12.138;2023-04-27T01:24:07;100827.09;;;7.37;51.51
12182;BME280;6154;51.550;12.138;2023-04-27T01:26:36;100823.53;;;7.38;51.44
12182;BME280;6154;51.550;12.138;2023-04-27T01:29:04;100822.63;;;7.39;51.43
12182;BME280;6154;51.550;12.138;2023-04-27T01:31:32;100828.88;;;7.37;51.89
12182;BME280;6154;51.550;12.138;2023-04-27T01:34:01;100832.56;;;7.31;52.44
12182;BME280;6154;51.550;12.138;2023-04-27T01:36:29;100825.56;;;7.30;52.14
12182;BME280;6154;51.550;12.138;2023-04-27T01:38:57;100829.13;;;7.29;52.45
12182;BME280;6154;51.550;12.138;2023-04-27T01:41:27;100831.88;;;7.26;52.93
12182;BME280;6154;51.550;12.138;2023-04-27T01:43:55;100832.63;;;7.30;52.33
12182;BME280;6154;51.550;12.138;2023-04-27T01:46:23;100825.56;;;7.30;52.76
12182;BME280;6154;51.550;12.138;2023-04-27T01:48:51;100829.03;;;7.32;52.40
12182;BME280;6154;51.550;12.138;2023-04-27T01:51:19;100833.37;;;7.33;52.47
12182;BME280;6154;51.550;12.138;2023-04-27T01:53:48;100827.16;;;7.36;51.29
12182;BME280;6154;51.550;12.138;2023-04-27T01:56:16;100831.50;;;7.37;51.78
12182;BME280;6154;51.550;12.138;2023-04-27T01:58:45;100829.78;;;7.36;51.20
12182;BME280;6154;51.550;12.138;2023-04-27T02:01:13;100828.97;;;7.34;51.83
12182;BME280;6154;51.550;12.138;2023-04-27T02:03:42;100835.03;;;7.36;51.60
12182;BME280;6154;51.550;12.138;2023-04-27T02:06:11;100835.09;;;7.34;51.72
12182;BME280;6154;51.550;12.138;2023-04-27T02:08:39;100836.87;;;7.34;51.84
12182;BME280;6154;51.550;12.138;2023-04-27T02:11:07;100837.81;;;7.31;52.64
12182;BME280;6154;51.550;12.138;2023-04-27T02:13:36;100844.13;;;7.27;52.77
12182;BME280;6154;51.550;12.138;2023-04-27T02:16:06;100842.41;;;7.26;52.77
12182;BME280;6154;51.550;12.138;2023-04-27T02:18:34;100845.28;;;7.18;52.60
12182;BME280;6154;51.550;12.138;2023-04-27T02:21:07;100841.81;;;7.18;52.26
12182;BME280;6154;51.550;12.138;2023-04-27T02:23:36;100841.97;;;7.13;52.40
12182;BME280;6154;51.550;12.138;2023-04-27T02:26:05;100842.91;;;7.11;52.49
12182;BME280;6154;51.550;12.138;2023-04-27T02:28:36;100840.41;;;7.08;52.24
12182;BME280;6154;51.550;12.138;2023-04-27T02:31:06;100849.50;;;6.98;52.84
12182;BME280;6154;51.550;12.138;2023-04-27T02:33:34;100850.72;;;6.87;53.61
12182;BME280;6154;51.550;12.138;2023-04-27T02:36:03;100852.66;;;6.82;53.59
12182;BME280;6154;51.550;12.138;2023-04-27T02:38:31;100849.97;;;6.84;53.44
12182;BME280;6154;51.550;12.138;2023-04-27T02:40:59;100855.19;;;6.85;53.69
12182;BME280;6154;51.550;12.138;2023-04-27T02:43:28;100857.69;;;6.88;53.50
12182;BME280;6154;51.550;12.138;2023-04-27T02:45:56;100862.81;;;6.93;53.51
12182;BME280;6154;51.550;12.138;2023-04-27T02:48:29;100866.22;;;6.97;53.51
12182;BME280;6154;51.550;12.138;2023-04-27T02:50:57;100868.66;;;7.01;53.49
12182;BME280;6154;51.550;12.138;2023-04-27T02:53:25;100863.41;;;7.01;53.56
12182;BME280;6154;51.550;12.138;2023-04-27T02:55:54;100876.69;;;6.98;53.95
12182;BME280;6154;51.550;12.138;2023-04-27T02:58:22;100874.09;;;6.97;52.99
12182;BME280;6154;51.550;12.138;2023-04-27T03:00:53;100877.66;;;6.96;53.05
12182;BME280;6154;51.550;12.138;2023-04-27T03:03:21;100883.75;;;6.96;52.86
12182;BME280;6154;51.550;12.138;2023-04-27T03:05:51;100888.84;;;7.01;52.93
12182;BME280;6154;51.550;12.138;2023-04-27T03:08:19;100887.87;;;7.05;53.08
12182;BME280;6154;51.550;12.138;2023-04-27T03:10:47;100892.22;;;7.06;53.36
12182;BME280;6154;51.550;12.138;2023-04-27T03:13:15;100892.06;;;7.10;53.03
12182;BME280;6154;51.550;12.138;2023-04-27T03:15:43;100896.25;;;7.16;53.04
12182;BME280;6154;51.550;12.138;2023-04-27T03:18:12;100894.31;;;7.21;52.91
12182;BME280;6154;51.550;12.138;2023-04-27T03:20:40;100891.59;;;7.24;52.82
12182;BME280;6154;51.550;12.138;2023-04-27T03:23:09;100891.50;;;7.27;53.08
12182;BME280;6154;51.550;12.138;2023-04-27T03:25:38;100886.19;;;7.29;52.99
12182;BME280;6154;51.550;12.138;2023-04-27T03:28:10;100889.59;;;7.31;53.03
12182;BME280;6154;51.550;12.138;2023-04-27T03:30:39;100893.94;;;7.33;52.92
12182;BME280;6154;51.550;12.138;2023-04-27T03:33:07;100890.38;;;7.34;52.72
12182;BME280;6154;51.550;12.138;2023-04-27T03:35:36;100894.78;;;7.34;52.56
12182;BME280;6154;51.550;12.138;2023-04-27T03:38:04;100892.09;;;7.35;52.34
12182;BME280;6154;51.550;12.138;2023-04-27T03:40:34;100899.09;;;7.36;52.42
12182;BME280;6154;51.550;12.138;2023-04-27T03:43:02;100900.00;;;7.35;52.67
12182;BME280;6154;51.550;12.138;2023-04-27T03:45:30;100904.47;;;7.33;52.82
12182;BME280;6154;51.550;12.138;2023-04-27T03:47:59;100904.41;;;7.35;52.54
12182;BME280;6154;51.550;12.138;2023-04-27T03:50:28;100907.03;;;7.35;52.62
12182;BME280;6154;51.550;12.138;2023-04-27T03:52:56;100916.72;;;7.34;52.97
12182;BME280;6154;51.550;12.138;2023-04-27T03:55:25;100918.44;;;7.35;53.07
12182;BME280;6154;51.550;12.138;2023-04-27T03:57:59;100918.25;;;7.40;52.90
12182;BME280;6154;51.550;12.138;2023-04-27T04:00:30;100916.28;;;7.46;52.75
12182;BME280;6154;51.550;12.138;2023-04-27T04:02:59;100917.81;;;7.54;53.00
12182;BME280;6154;51.550;12.138;2023-04-27T04:05:27;100922.97;;;7.57;53.75
12182;BME280;6154;51.550;12.138;2023-04-27T04:07:56;100923.66;;;7.62;53.35
12182;BME280;6154;51.550;12.138;2023-04-27T04:10:25;100918.28;;;7.65;53.38
12182;BME280;6154;51.550;12.138;2023-04-27T04:12:53;100926.94;;;7.68;53.37
12182;BME280;6154;51.550;12.138;2023-04-27T04:15:23;100922.38;;;7.73;53.67
12182;BME280;6154;51.550;12.138;2023-04-27T04:17:51;100932.72;;;7.78;53.69
12182;BME280;6154;51.550;12.138;2023-04-27T04:20:20;100936.81;;;7.87;53.33
12182;BME280;6154;51.550;12.138;2023-04-27T04:22:48;100932.19;;;7.93;53.12
12182;BME280;6154;51.550;12.138;2023-04-27T04:25:17;100931.97;;;7.99;53.14
12182;BME280;6154;51.550;12.138;2023-04-27T04:27:46;100924.75;;;8.04;53.35
12182;BME280;6154;51.550;12.138;2023-04-27T04:30:15;100932.34;;;8.14;53.03
12182;BME280;6154;51.550;12.138;2023-04-27T04:32:45;100930.38;;;8.19;52.74
12182;BME280;6154;51.550;12.138;2023-04-27T04:35:13;100930.16;;;8.25;53.01
12182;BME280;6154;51.550;12.138;2023-04-27T04:37:43;100932.56;;;8.31;52.81
12182;BME280;6154;51.550;12.138;2023-04-27T04:40:13;100928.09;;;8.33;53.23
12182;BME280;6154;51.550;12.138;2023-04-27T04:42:41;100927.19;;;8.34;53.31
12182;BME280;6154;51.550;12.138;2023-04-27T04:45:10;100931.50;;;8.37;52.96
12182;BME280;6154;51.550;12.138;2023-04-27T04:47:38;100920.84;;;8.40;53.19
12182;BME280;6154;51.550;12.138;2023-04-27T04:50:09;100926.62;;;8.49;53.02
12182;BME280;6154;51.550;12.138;2023-04-27T04:52:38;100926.25;;;8.58;53.14
12182;BME280;6154;51.550;12.138;2023-04-27T04:55:07;100925.78;;;8.71;52.79
12182;BME280;6154;51.550;12.138;2023-04-27T04:57:36;100937.03;;;8.76;53.39
12182;BME280;6154;51.550;12.138;2023-04-27T05:00:05;100932.53;;;8.78;53.29
12182;BME280;6154;51.550;12.138;2023-04-27T05:02:37;100941.50;;;8.74;54.17
12182;BME280;6154;51.550;12.138;2023-04-27T05:05:07;100938.50;;;8.83;53.26
12182;BME280;6154;51.550;12.138;2023-04-27T05:07:36;100935.63;;;8.89;53.43
12182;BME280;6154;51.550;12.138;2023-04-27T05:10:05;100932.81;;;8.93;53.75
12182;BME280;6154;51.550;12.138;2023-04-27T05:12:33;100932.59;;;8.98;53.43
12182;BME280;6154;51.550;12.138;2023-04-27T05:15:01;100932.31;;;9.06;53.21
12182;BME280;6154;51.550;12.138;2023-04-27T05:17:30;100931.06;;;9.14;53.15
12182;BME280;6154;51.550;12.138;2023-04-27T05:19:58;100935.16;;;9.21;53.12
12182;BME280;6154;51.550;12.138;2023-04-27T05:22:27;100932.28;;;9.28;53.00
12182;BME280;6154;51.550;12.138;2023-04-27T05:24:56;100942.72;;;9.31;53.24
12182;BME280;6154;51.550;12.138;2023-04-27T05:27:25;100944.88;;;9.43;52.61
12182;BME280;6154;51.550;12.138;2023-04-27T05:29:53;100939.06;;;9.55;52.58
12182;BME280;6154;51.550;12.138;2023-04-27T05:32:21;100932.31;;;9.68;52.70
12182;BME280;6154;51.550;12.138;2023-04-27T05:34:49;100937.06;;;9.80;52.42
12182;BME280;6154;51.550;12.138;2023-04-27T05:37:18;100943.66;;;9.91;52.55
12182;BME280;6154;51.550;12.138;2023-04-27T05:39:46;100936.59;;;9.91;52.62
12182;BME280;6154;51.550;12.138;2023-04-27T05:42:16;100938.81;;;10.00;52.42
12182;BME280;6154;51.550;12.138;2023-04-27T05:44:44;100935.00;;;10.07;52.35
12182;BME280;6154;51.550;12.138;2023-04-27T05:47:12;100940.56;;;10.20;52.25
12182;BME280;6154;51.550;12.138;2023-04-27T05:49:40;100935.56;;;10.34;52.24
12182;BME280;6154;51.550;12.138;2023-04-27T05:52:08;100943.62;;;10.50;52.67
12182;BME280;6154;51.550;12.138;2023-04-27T05:54:37;100949.09;;;10.66;52.22
12182;BME280;6154;51.550;12.138;2023-04-27T05:57:06;100953.53;;;10.84;52.16
12182;BME280;6154;51.550;12.138;2023-04-27T05:59:35;100954.56;;;10.99;51.81
12182;BME280;6154;51.550;12.138;2023-04-27T06:02:03;100956.56;;;11.13;51.88
12182;BME280;6154;51.550;12.138;2023-04-27T06:04:32;100951.59;;;11.24;51.88
12182;BME280;6154;51.550;12.138;2023-04-27T06:07:00;100951.13;;;11.33;51.43
12182;BME280;6154;51.550;12.138;2023-04-27T06:09:30;100954.22;;;11.41;50.90
12182;BME280;6154;51.550;12.138;2023-04-27T06:11:58;100951.28;;;11.47;50.30
12182;BME280;6154;51.550;12.138;2023-04-27T06:14:28;100955.09;;;11.59;50.93
12182;BME280;6154;51.550;12.138;2023-04-27T06:16:58;100962.37;;;11.73;51.48
12182;BME280;6154;51.550;12.138;2023-04-27T06:19:26;100962.22;;;11.76;52.22
12182;BME280;6154;51.550;12.138;2023-04-27T06:21:54;100960.34;;;11.78;52.39
12182;BME280;6154;51.550;12.138;2023-04-27T06:24:23;100963.88;;;11.96;51.51
12182;BME280;6154;51.550;12.138;2023-04-27T06:26:51;100968.13;;;12.16;51.61
12182;BME280;6154;51.550;12.138;2023-04-27T06:29:20;100969.72;;;12.35;51.49
12182;BME280;6154;51.550;12.138;2023-04-27T06:31:48;100968.66;;;12.55;51.54
12182;BME280;6154;51.550;12.138;2023-04-27T06:34:18;100969.59;;;12.70;51.37
12182;BME280;6154;51.550;12.138;2023-04-27T06:36:46;100971.12;;;12.90;51.58
12182;BME280;6154;51.550;12.138;2023-04-27T06:39:14;100974.38;;;13.11;51.50
12182;BME280;6154;51.550;12.138;2023-04-27T06:41:43;100973.97;;;13.34;51.22
12182;BME280;6154;51.550;12.138;2023-04-27T06:44:15;100978.81;;;13.58;51.19
12182;BME280;6154;51.550;12.138;2023-04-27T06:46:43;100980.28;;;13.63;50.82
12182;BME280;6154;51.550;12.138;2023-04-27T06:49:12;100978.94;;;13.70;50.61
12182;BME280;6154;51.550;12.138;2023-04-27T06:51:41;100987.53;;;13.90;50.44
12182;BME280;6154;51.550;12.138;2023-04-27T06:54:10;100987.38;;;14.07;50.91
12182;BME280;6154;51.550;12.138;2023-04-27T06:56:38;100982.63;;;14.12;50.63
12182;BME280;6154;51.550;12.138;2023-04-27T06:59:06;100977.66;;;13.92;50.24
12182;BME280;6154;51.550;12.138;2023-04-27T07:01:35;100987.50;;;14.05;49.85
12182;BME280;6154;51.550;12.138;2023-04-27T07:04:03;100988.91;;;14.11;49.83
12182;BME280;6154;51.550;12.138;2023-04-27T07:06:32;100988.06;;;14.39;49.55
12182;BME280;6154;51.550;12.138;2023-04-27T07:09:02;100980.13;;;14.53;49.42
12182;BME280;6154;51.550;12.138;2023-04-27T07:11:43;100987.88;;;14.42;49.03
12182;BME280;6154;51.550;12.138;2023-04-27T07:14:12;100992.94;;;14.75;49.08
12182;BME280;6154;51.550;12.138;2023-04-27T07:16:40;100985.13;;;14.72;48.63
12182;BME280;6154;51.550;12.138;2023-04-27T07:19:09;100995.88;;;14.71;48.60
12182;BME280;6154;51.550;12.138;2023-04-27T07:21:38;100993.72;;;14.77;48.36
12182;BME280;6154;51.550;12.138;2023-04-27T07:24:08;100993.06;;;14.59;48.12
12182;BME280;6154;51.550;12.138;2023-04-27T07:26:36;101000.16;;;14.87;48.49
12182;BME280;6154;51.550;12.138;2023-04-27T07:29:05;101004.75;;;14.85;48.32
12182;BME280;6154;51.550;12.138;2023-04-27T07:31:52;101003.09;;;14.83;48.03
12182;BME280;6154;51.550;12.138;2023-04-27T07:34:22;100995.53;;;15.18;48.35
12182;BME280;6154;51.550;12.138;2023-04-27T07:36:50;101005.44;;;15.43;48.16
12182;BME280;6154;51.550;12.138;2023-04-27T07:39:21;101003.47;;;15.59;47.90
12182;BME280;6154;51.550;12.138;2023-04-27T07:41:50;101011.13;;;15.51;47.05
12182;BME280;6154;51.550;12.138;2023-04-27T07:44:18;101009.41;;;15.64;47.48
12182;BME280;6154;51.550;12.138;2023-04-27T07:46:47;101010.13;;;15.66;47.74
12182;BME280;6154;51.550;12.138;2023-04-27T07:49:16;101012.81;;;15.66;47.19
12182;BME280;6154;51.550;12.138;2023-04-27T07:51:44;101027.41;;;16.00;47.45
12182;BME280;6154;51.550;12.138;2023-04-27T07:54:12;101014.44;;;15.81;47.27
12182;BME280;6154;51.550;12.138;2023-04-27T07:56:42;101017.56;;;16.01;47.23
12182;BME280;6154;51.550;12.138;2023-04-27T07:59:10;101019.75;;;16.34;47.15
12182;BME280;6154;51.550;12.138;2023-04-27T08:01:41;101024.34;;;16.57;46.96
12182;BME280;6154;51.550;12.138;2023-04-27T08:04:09;101033.72;;;16.50;47.28
12182;BME280;6154;51.550;12.138;2023-04-27T08:06:38;101034.72;;;16.75;47.01
12182;BME280;6154;51.550;12.138;2023-04-27T08:09:08;101028.59;;;16.60;46.05
12182;BME280;6154;51.550;12.138;2023-04-27T08:11:37;101033.72;;;16.63;46.73
12182;BME280;6154;51.550;12.138;2023-04-27T08:14:06;101029.97;;;16.91;46.72
12182;BME280;6154;51.550;12.138;2023-04-27T08:16:40;101031.94;;;17.13;46.21
12182;BME280;6154;51.550;12.138;2023-04-27T08:19:09;101021.53;;;17.34;46.56
12182;BME280;6154;51.550;12.138;2023-04-27T08:21:38;101017.47;;;17.52;46.01
12182;BME280;6154;51.550;12.138;2023-04-27T08:24:06;101029.50;;;17.46;45.85
12182;BME280;6154;51.550;12.138;2023-04-27T08:26:34;101027.81;;;17.33;45.00
12182;BME280;6154;51.550;12.138;2023-04-27T08:29:03;101025.91;;;17.35;45.70
12182;BME280;6154;51.550;12.138;2023-04-27T08:31:51;101029.63;;;17.32;45.75
12182;BME280;6154;51.550;12.138;2023-04-27T08:34:22;101031.41;;;17.68;45.62
12182;BME280;6154;51.550;12.138;2023-04-27T08:36:52;101025.91;;;17.83;45.15
12182;BME280;6154;51.550;12.138;2023-04-27T08:39:22;101015.03;;;17.73;44.05
12182;BME280;6154;51.550;12.138;2023-04-27T08:41:50;101012.25;;;17.74;44.91
12182;BME280;6154;51.550;12.138;2023-04-27T08:44:18;101013.66;;;17.67;45.08
12182;BME280;6154;51.550;12.138;2023-04-27T08:46:47;101005.47;;;17.93;44.64
12182;BME280;6154;51.550;12.138;2023-04-27T08:49:16;100997.03;;;18.21;44.73
12182;BME280;6154;51.550;12.138;2023-04-27T08:51:45;101002.34;;;17.99;42.47
12182;BME280;6154;51.550;12.138;2023-04-27T08:54:13;101002.31;;;17.88;43.63
12182;BME280;6154;51.550;12.138;2023-04-27T08:56:42;101001.97;;;17.68;44.21
12182;BME280;6154;51.550;12.138;2023-04-27T08:59:13;101001.94;;;17.57;44.62
12182;BME280;6154;51.550;12.138;2023-04-27T09:01:43;101006.13;;;17.96;44.62
12182;BME280;6154;51.550;12.138;2023-04-27T09:04:13;100996.56;;;18.38;44.38
12182;BME280;6154;51.550;12.138;2023-04-27T09:06:43;101006.13;;;18.76;44.36
12182;BME280;6154;51.550;12.138;2023-04-27T09:09:21;101003.06;;;18.81;43.05
12182;BME280;6154;51.550;12.138;2023-04-27T09:11:52;101006.56;;;18.48;40.69
12182;BME280;6154;51.550;12.138;2023-04-27T09:14:23;101003.37;;;18.31;43.19
12182;BME280;6154;51.550;12.138;2023-04-27T09:16:54;100994.50;;;18.53;43.89
12182;BME280;6154;51.550;12.138;2023-04-27T09:19:25;100998.78;;;18.89;42.97
12182;BME280;6154;51.550;12.138;2023-04-27T09:22:04;100999.16;;;19.39;43.67
12182;BME280;6154;51.550;12.138;2023-04-27T09:24:33;100998.03;;;19.42;38.98
12182;BME280;6154;51.550;12.138;2023-04-27T09:27:02;100996.78;;;19.89;42.98
12182;BME280;6154;51.550;12.138;2023-04-27T09:29:31;100991.91;;;19.51;42.53
12182;BME280;6154;51.550;12.138;2023-04-27T09:32:00;100999.84;;;19.09;42.20
12182;BME280;6154;51.550;12.138;2023-04-27T09:34:39;100994.00;;;18.93;42.02
12182;BME280;6154;51.550;12.138;2023-04-27T09:37:09;100996.47;;;18.96;41.22
12182;BME280;6154;51.550;12.138;2023-04-27T09:39:37;100987.34;;;18.65;41.99
12182;BME280;6154;51.550;12.138;2023-04-27T09:42:06;100985.87;;;18.72;42.74
12182;BME280;6154;51.550;12.138;2023-04-27T09:44:35;100982.81;;;18.88;42.47
12182;BME280;6154;51.550;12.138;2023-04-27T09:47:03;100988.28;;;18.98;42.33
12182;BME280;6154;51.550;12.138;2023-04-27T09:49:33;100983.94;;;18.85;40.21
12182;BME280;6154;51.550;12.138;2023-04-27T09:52:01;100984.00;;;19.06;41.97
12182;BME280;6154;51.550;12.138;2023-04-27T09:54:33;100981.81;;;19.43;41.64
12182;BME280;6154;51.550;12.138;2023-04-27T09:57:09;100978.31;;;19.75;39.82
12182;BME280;6154;51.550;12.138;2023-04-27T09:59:54;100970.03;;;20.08;39.33
12182;BME280;6154;51.550;12.138;2023-04-27T10:02:26;100966.81;;;20.35;36.96
12182;BME280;6154;51.550;12.138;2023-04-27T10:05:15;100967.09;;;20.12;39.96
12182;BME280;6154;51.550;12.138;2023-04-27T10:07:48;100966.97;;;19.92;36.71
12182;BME280;6154;51.550;12.138;2023-04-27T10:10:20;100966.50;;;19.87;40.19
12182;BME280;6154;51.550;12.138;2023-04-27T10:12:55;100966.09;;;19.71;41.26
12182;BME280;6154;51.550;12.138;2023-04-27T10:15:26;100965.66;;;19.66;39.42
12182;BME280;6154;51.550;12.138;2023-04-27T10:17:54;100962.84;;;20.09;41.48
12182;BME280;6154;51.550;12.138;2023-04-27T10:20:29;100965.19;;;20.02;39.88
12182;BME280;6154;51.550;12.138;2023-04-27T10:22:58;100969.00;;;20.00;39.94
12182;BME280;6154;51.550;12.138;2023-04-27T10:25:35;100960.56;;;20.04;40.90
12182;BME280;6154;51.550;12.138;2023-04-27T10:28:03;100966.94;;;20.13;39.40
12182;BME280;6154;51.550;12.138;2023-04-27T10:30:35;100970.78;;;20.41;39.93
12182;BME280;6154;51.550;12.138;2023-04-27T10:33:05;100969.22;;;20.69;40.43
12182;BME280;6154;51.550;12.138;2023-04-27T10:35:36;100967.62;;;20.97;38.37
12182;BME280;6154;51.550;12.138;2023-04-27T10:38:05;100970.53;;;21.53;39.88
12182;BME280;6154;51.550;12.138;2023-04-27T10:40:37;100965.72;;;21.96;39.51
12182;BME280;6154;51.550;12.138;2023-04-27T10:43:09;100965.87;;;21.65;39.11
12182;BME280;6154;51.550;12.138;2023-04-27T10:45:39;100976.06;;;20.83;37.15
12182;BME280;6154;51.550;12.138;2023-04-27T10:48:07;100980.34;;;20.34;39.76
12182;BME280;6154;51.550;12.138;2023-04-27T10:50:36;100966.84;;;20.15;40.12
12182;BME280;6154;51.550;12.138;2023-04-27T10:53:06;100966.88;;;20.03;40.02
12182;BME280;6154;51.550;12.138;2023-04-27T10:55:35;100976.72;;;19.93;39.94
12182;BME280;6154;51.550;12.138;2023-04-27T10:58:04;100975.81;;;19.83;39.52
12182;BME280;6154;51.550;12.138;2023-04-27T11:00:34;100969.41;;;19.74;39.74
12182;BME280;6154;51.550;12.138;2023-04-27T11:03:12;100971.47;;;19.71;39.23
12182;BME280;6154;51.550;12.138;2023-04-27T11:05:41;100962.97;;;19.66;37.46
12182;BME280;6154;51.550;12.138;2023-04-27T11:08:11;100962.16;;;19.54;39.00
12182;BME280;6154;51.550;12.138;2023-04-27T11:10:45;100956.44;;;19.47;38.54
12182;BME280;6154;51.550;12.138;2023-04-27T11:13:16;100954.78;;;19.88;38.28
12182;BME280;6154;51.550;12.138;2023-04-27T11:15:46;100967.22;;;20.61;39.54
12182;BME280;6154;51.550;12.138;2023-04-27T11:18:16;100961.66;;;20.93;38.80
12182;BME280;6154;51.550;12.138;2023-04-27T11:20:46;100969.19;;;20.59;38.64
12182;BME280;6154;51.550;12.138;2023-04-27T11:23:22;100965.97;;;20.14;36.91
12182;BME280;6154;51.550;12.138;2023-04-27T11:25:53;100967.75;;;19.83;35.81
12182;BME280;6154;51.550;12.138;2023-04-27T11:28:23;100970.34;;;19.41;38.37
12182;BME280;6154;51.550;12.138;2023-04-27T11:30:55;100961.84;;;19.36;38.79
12182;BME280;6154;51.550;12.138;2023-04-27T11:33:24;100962.50;;;19.49;38.41
12182;BME280;6154;51.550;12.138;2023-04-27T11:35:52;100969.34;;;19.86;39.79
12182;BME280;6154;51.550;12.138;2023-04-27T11:38:21;100962.91;;;19.98;39.06
12182;BME280;6154;51.550;12.138;2023-04-27T11:41:00;100961.50;;;20.03;39.46
12182;BME280;6154;51.550;12.138;2023-04-27T11:43:28;100962.59;;;20.43;37.80
12182;BME280;6154;51.550;12.138;2023-04-27T11:45:57;100964.91;;;20.47;38.65
12182;BME280;6154;51.550;12.138;2023-04-27T11:48:26;100964.50;;;20.31;36.86
12182;BME280;6154;51.550;12.138;2023-04-27T11:50:56;100963.50;;;20.01;37.93
12182;BME280;6154;51.550;12.138;2023-04-27T11:53:32;100967.44;;;19.76;37.97
12182;BME280;6154;51.550;12.138;2023-04-27T11:56:02;100966.50;;;19.87;37.98
12182;BME280;6154;51.550;12.138;2023-04-27T11:58:32;100965.97;;;19.93;36.95
12182;BME280;6154;51.550;12.138;2023-04-27T12:01:02;100966.69;;;20.16;37.22
12182;BME280;6154;51.550;12.138;2023-04-27T12:03:30;100966.97;;;20.64;37.96
12182;BME280;6154;51.550;12.138;2023-04-27T12:05:59;100965.87;;;20.77;37.85
12182;BME280;6154;51.550;12.138;2023-04-27T12:08:47;100960.31;;;20.69;37.85
12182;BME280;6154;51.550;12.138;2023-04-27T12:11:17;100959.00;;;20.63;37.61
12182;BME280;6154;51.550;12.138;2023-04-27T12:13:45;100963.34;;;20.85;37.46
12182;BME280;6154;51.550;12.138;2023-04-27T12:16:14;100955.75;;;21.09;37.95
12182;BME280;6154;51.550;12.138;2023-04-27T12:18:42;100957.88;;;21.15;37.37
12182;BME280;6154;51.550;12.138;2023-04-27T12:21:10;100964.09;;;20.97;36.66
12182;BME280;6154;51.550;12.138;2023-04-27T12:23:39;100964.16;;;20.76;36.82
12182;BME280;6154;51.550;12.138;2023-04-27T12:26:07;100957.44;;;20.30;37.14
12182;BME280;6154;51.550;12.138;2023-04-27T12:28:37;100958.84;;;20.34;36.85
12182;BME280;6154;51.550;12.138;2023-04-27T12:31:05;100959.69;;;20.25;37.11
12182;BME280;6154;51.550;12.138;2023-04-27T12:33:34;100957.50;;;20.19;36.86
12182;BME280;6154;51.550;12.138;2023-04-27T12:36:02;100952.09;;;19.88;37.23
12182;BME280;6154;51.550;12.138;2023-04-27T12:38:31;100949.06;;;20.02;37.66
12182;BME280;6154;51.550;12.138;2023-04-27T12:41:00;100951.13;;;19.89;36.65
12182;BME280;6154;51.550;12.138;2023-04-27T12:43:29;100961.50;;;19.62;36.34
12182;BME280;6154;51.550;12.138;2023-04-27T12:45:58;100955.09;;;19.74;37.56
12182;BME280;6154;51.550;12.138;2023-04-27T12:48:27;100956.56;;;19.78;36.77
12182;BME280;6154;51.550;12.138;2023-04-27T12:50:55;100954.91;;;19.66;36.33
12182;BME280;6154;51.550;12.138;2023-04-27T12:53:24;100954.66;;;19.69;36.07
12182;BME280;6154;51.550;12.138;2023-04-27T12:55:52;100954.31;;;19.62;37.00
12182;BME280;6154;51.550;12.138;2023-04-27T12:58:20;100946.94;;;19.96;37.28
12182;BME280;6154;51.550;12.138;2023-04-27T13:00:48;100950.78;;;20.24;37.14
12182;BME280;6154;51.550;12.138;2023-04-27T13:03:17;100947.91;;;20.87;37.18
12182;BME280;6154;51.550;12.138;2023-04-27T13:05:46;100948.28;;;21.32;36.35
12182;BME280;6154;51.550;12.138;2023-04-27T13:08:15;100950.13;;;21.32;36.31